Time;durP1;ratioP1;P1;durP2;ratioP2;P2;SDS_P1;SDS_P2;PMS_P1;PMS_P2;Temp;Humidity;BMP_temperature;BMP_pressure;BME280_temperature;BME280_humidity;BME280_pressure;Samples;Min_cycle;Max_cycle;Signal;HPM_P1;HPM_P2
2021/03/08 00:02:04;;;;;;;27.47;17.80;;;;;;;;;;5032438;28;20211;-48
2021/03/08 00:04:30;;;;;;;30.23;18.43;;;;;;;;;;5037955;28;20566;-47
2021/03/08 00:06:55;;;;;;;31.73;19.17;;;;;;;;;;5039714;28;20217;-49
2021/03/08 00:09:20;;;;;;;30.00;19.10;;;;;;;;;;5027760;28;20610;-48
2021/03/08 00:11:45;;;;;;;31.67;18.83;;;;;;;;;;5041951;28;20457;-47
2021/03/08 00:14:11;;;;;;;31.60;19.10;;;;;;;;;;5041167;28;20194;-47
2021/03/08 00:16:36;;;;;;;33.63;20.00;;;;;;;;;;5042975;28;20565;-49
2021/03/08 00:19:02;;;;;;;31.93;19.33;;;;;;;;;;5042403;28;20187;-47
2021/03/08 00:21:27;;;;;;;32.20;19.07;;;;;;;;;;5041935;28;20178;-47
2021/03/08 00:23:52;;;;;;;28.20;18.60;;;;;;;;;;5030113;28;20214;-48
2021/03/08 00:26:17;;;;;;;31.90;19.60;;;;;;;;;;5043171;28;20221;-46
2021/03/08 00:28:43;;;;;;;30.40;18.43;;;;;;;;;;5042135;28;20417;-49
2021/03/08 00:31:08;;;;;;;29.27;19.43;;;;;;;;;;5040367;28;20689;-47
2021/03/08 00:33:33;;;;;;;34.07;19.77;;;;;;;;;;5042825;28;20174;-48
2021/03/08 00:35:58;;;;;;;34.70;19.80;;;;;;;;;;5038619;28;20218;-47
2021/03/08 00:38:24;;;;;;;33.07;19.00;;;;;;;;;;5025236;28;20289;-48
2021/03/08 00:40:51;;;;;;;30.87;17.60;;;;;;;;;;5047546;28;20359;-47
2021/03/08 00:43:16;;;;;;;36.57;21.10;;;;;;;;;;5041258;28;20185;-47
2021/03/08 00:45:42;;;;;;;29.13;18.50;;;;;;;;;;5037369;28;20218;-48
2021/03/08 00:48:07;;;;;;;32.60;19.70;;;;;;;;;;5041222;28;20197;-47
2021/03/08 00:50:32;;;;;;;35.57;19.50;;;;;;;;;;5045291;28;20660;-48
2021/03/08 00:52:58;;;;;;;34.27;21.53;;;;;;;;;;5046012;28;20289;-48
2021/03/08 00:55:23;;;;;;;30.77;18.73;;;;;;;;;;5040235;28;20209;-47
2021/03/08 00:57:49;;;;;;;32.90;19.40;;;;;;;;;;5045614;28;20259;-47
2021/03/08 01:00:17;;;;;;;34.83;19.60;;;;;;;;;;5036794;28;20190;-47
2021/03/08 01:02:42;;;;;;;35.83;19.53;;;;;;;;;;5042763;28;20630;-47
2021/03/08 01:05:08;;;;;;;32.77;18.93;;;;;;;;;;5042980;28;20272;-46
2021/03/08 01:07:34;;;;;;;36.13;18.67;;;;;;;;;;5041347;28;20194;-47
2021/03/08 01:10:00;;;;;;;33.80;18.13;;;;;;;;;;5034667;28;20272;-46
2021/03/08 01:12:27;;;;;;;30.57;17.73;;;;;;;;;;5046642;28;20301;-48
2021/03/08 01:14:53;;;;;;;31.90;17.30;;;;;;;;;;5043747;28;20259;-48
2021/03/08 01:17:18;;;;;;;28.87;17.60;;;;;;;;;;5050524;28;20190;-47
2021/03/08 01:19:43;;;;;;;32.80;19.23;;;;;;;;;;5035652;28;20606;-46
2021/03/08 01:22:09;;;;;;;30.13;17.30;;;;;;;;;;5053063;28;20200;-48
2021/03/08 01:24:35;;;;;;;38.50;20.60;;;;;;;;;;5034518;28;20251;-47
2021/03/08 01:27:00;;;;;;;28.97;17.43;;;;;;;;;;5050034;28;20331;-47
2021/03/08 01:29:25;;;;;;;30.50;17.93;;;;;;;;;;5051007;28;20265;-46
2021/03/08 01:31:51;;;;;;;36.03;19.13;;;;;;;;;;5046545;28;20210;-49
2021/03/08 01:34:16;;;;;;;32.67;18.33;;;;;;;;;;5045410;28;20217;-48
2021/03/08 01:36:41;;;;;;;34.87;20.43;;;;;;;;;;5047319;28;20272;-47
2021/03/08 01:39:06;;;;;;;33.53;19.63;;;;;;;;;;5048179;28;20201;-50
2021/03/08 01:41:32;;;;;;;31.60;17.47;;;;;;;;;;5044244;28;20308;-48
2021/03/08 01:43:58;;;;;;;27.63;15.93;;;;;;;;;;5044447;28;20190;-49
2021/03/08 01:46:23;;;;;;;28.70;16.30;;;;;;;;;;5047992;28;20724;-48
2021/03/08 01:48:48;;;;;;;28.73;15.53;;;;;;;;;;5050858;28;20208;-51
2021/03/08 01:51:14;;;;;;;27.57;15.93;;;;;;;;;;5054206;28;20224;-48
2021/03/08 01:53:40;;;;;;;22.63;14.53;;;;;;;;;;5045160;28;20244;-49
2021/03/08 01:56:05;;;;;;;24.03;13.97;;;;;;;;;;5050069;28;20382;-47
2021/03/08 01:58:31;;;;;;;24.30;13.23;;;;;;;;;;5049956;28;20201;-50
2021/03/08 02:00:57;;;;;;;23.67;12.53;;;;;;;;;;5051614;28;20635;-48
2021/03/08 02:03:23;;;;;;;22.17;12.27;;;;;;;;;;5043584;28;20542;-47
2021/03/08 02:05:49;;;;;;;20.27;10.30;;;;;;;;;;5050536;28;20214;-48
2021/03/08 02:08:17;;;;;;;20.10;9.10;;;;;;;;;;5051704;28;20194;-49
2021/03/08 02:10:44;;;;;;;15.40;8.17;;;;;;;;;;5033344;28;20711;-47
2021/03/08 02:13:31;;;;;;;16.63;8.20;;;;;;;;;;5049891;28;20700;-47
2021/03/08 02:16:07;;;;;;;17.60;8.37;;;;;;;;;;5049052;28;20220;-47
2021/03/08 02:18:43;;;;;;;18.13;8.13;;;;;;;;;;5048496;28;20195;-49
2021/03/08 02:21:45;;;;;;;15.53;6.43;;;;;;;;;;5047497;28;20181;-49
2021/03/08 02:24:25;;;;;;;15.57;6.63;;;;;;;;;;5049310;28;20280;-50
2021/03/08 02:26:53;;;;;;;19.13;7.57;;;;;;;;;;5046958;28;20190;-49
2021/03/08 02:29:50;;;;;;;14.40;6.43;;;;;;;;;;5024139;28;20277;-48
2021/03/08 02:32:18;;;;;;;16.13;6.20;;;;;;;;;;5045093;28;20202;-47
2021/03/08 02:35:05;;;;;;;11.77;5.20;;;;;;;;;;5045887;28;21416;-48
2021/03/08 02:37:39;;;;;;;16.07;5.20;;;;;;;;;;5046210;28;20198;-49
2021/03/08 02:40:11;;;;;;;12.20;4.80;;;;;;;;;;5043381;28;20182;-48
2021/03/08 02:42:38;;;;;;;15.67;5.17;;;;;;;;;;5047237;28;20194;-48
2021/03/08 02:45:05;;;;;;;13.93;5.03;;;;;;;;;;5047508;28;20217;-47
2021/03/08 02:47:32;;;;;;;16.00;5.80;;;;;;;;;;5047471;28;20220;-47
2021/03/08 02:50:01;;;;;;;15.50;5.43;;;;;;;;;;5047497;28;20259;-50
2021/03/08 02:52:30;;;;;;;14.67;5.67;;;;;;;;;;5052002;28;20217;-50
2021/03/08 02:54:57;;;;;;;13.33;5.37;;;;;;;;;;5045072;28;20210;-47
2021/03/08 02:57:26;;;;;;;15.70;5.77;;;;;;;;;;5044279;28;20190;-49
2021/03/08 02:59:54;;;;;;;11.67;4.67;;;;;;;;;;5043256;28;20666;-49
2021/03/08 03:02:21;;;;;;;16.83;4.90;;;;;;;;;;5047922;28;20217;-49
2021/03/08 03:04:49;;;;;;;13.40;5.00;;;;;;;;;;5037177;28;20218;-48
2021/03/08 03:07:16;;;;;;;11.33;5.33;;;;;;;;;;5043760;28;20197;-48
2021/03/08 03:09:42;;;;;;;16.23;5.50;;;;;;;;;;5047464;28;20277;-50
2021/03/08 03:12:10;;;;;;;10.40;4.13;;;;;;;;;;5049031;28;20299;-49
2021/03/08 03:14:36;;;;;;;11.57;4.17;;;;;;;;;;5035951;28;20464;-47
2021/03/08 03:17:08;;;;;;;19.53;4.83;;;;;;;;;;5042789;28;20187;-48
2021/03/08 03:19:38;;;;;;;11.07;4.87;;;;;;;;;;5045234;28;20445;-48
2021/03/08 03:22:04;;;;;;;12.53;4.80;;;;;;;;;;5050888;28;20234;-47
2021/03/08 03:24:31;;;;;;;12.33;4.77;;;;;;;;;;5051614;28;20200;-46
2021/03/08 03:26:59;;;;;;;11.97;4.87;;;;;;;;;;5042777;28;20197;-49
2021/03/08 03:29:24;;;;;;;10.33;5.40;;;;;;;;;;5044130;28;20736;-47
2021/03/08 03:31:50;;;;;;;17.23;5.07;;;;;;;;;;5039385;28;20465;-53
2021/03/08 03:34:18;;;;;;;13.57;5.10;;;;;;;;;;5038613;28;20190;-49
2021/03/08 03:36:51;;;;;;;12.30;4.87;;;;;;;;;;5037458;28;20221;-48
2021/03/08 03:39:17;;;;;;;12.93;4.73;;;;;;;;;;5044759;28;20225;-47
2021/03/08 03:41:42;;;;;;;10.63;4.47;;;;;;;;;;5045504;28;20818;-47
2021/03/08 03:44:09;;;;;;;14.20;5.17;;;;;;;;;;5046904;28;20221;-47
2021/03/08 03:46:42;;;;;;;16.70;5.50;;;;;;;;;;5041536;28;20215;-48
2021/03/08 03:49:08;;;;;;;11.33;4.93;;;;;;;;;;5044671;28;20562;-48
2021/03/08 03:51:34;;;;;;;11.07;5.03;;;;;;;;;;5040104;28;20242;-52
2021/03/08 03:53:59;;;;;;;13.70;5.67;;;;;;;;;;5042394;28;20682;-48
2021/03/08 03:56:28;;;;;;;11.73;4.57;;;;;;;;;;5042616;28;20205;-46
2021/03/08 03:59:00;;;;;;;19.07;5.90;;;;;;;;;;5039388;28;20197;-48
2021/03/08 04:01:40;;;;;;;16.47;5.20;;;;;;;;;;5043684;28;20240;-48
2021/03/08 04:04:14;;;;;;;13.30;5.23;;;;;;;;;;5030817;28;20193;-49
2021/03/08 04:06:47;;;;;;;9.23;4.60;;;;;;;;;;5038808;28;20217;-48
2021/03/08 04:09:14;;;;;;;14.17;4.00;;;;;;;;;;5043089;28;20260;-49
2021/03/08 04:11:41;;;;;;;11.80;3.73;;;;;;;;;;5043508;28;20238;-49
2021/03/08 04:14:08;;;;;;;15.50;4.93;;;;;;;;;;5038977;28;20201;-48
2021/03/08 04:16:36;;;;;;;10.70;4.03;;;;;;;;;;5043144;28;20212;-48
2021/03/08 04:19:02;;;;;;;16.20;4.43;;;;;;;;;;5042016;28;20189;-48
2021/03/08 04:21:29;;;;;;;15.83;4.67;;;;;;;;;;5042728;28;20707;-47
2021/03/08 04:23:55;;;;;;;15.40;5.23;;;;;;;;;;5041375;28;20327;-48
2021/03/08 04:26:21;;;;;;;18.00;5.23;;;;;;;;;;5038743;28;20212;-49
2021/03/08 04:28:47;;;;;;;12.33;5.23;;;;;;;;;;5027258;28;20553;-47
2021/03/08 04:31:13;;;;;;;13.07;4.77;;;;;;;;;;5025761;28;20216;-49
2021/03/08 04:33:41;;;;;;;21.80;5.33;;;;;;;;;;5036605;28;20198;-47
2021/03/08 04:36:08;;;;;;;13.30;4.70;;;;;;;;;;5036634;28;20221;-47
2021/03/08 04:38:34;;;;;;;11.60;5.50;;;;;;;;;;5039933;28;20197;-49
2021/03/08 04:41:00;;;;;;;16.97;5.53;;;;;;;;;;5042128;28;20198;-48
2021/03/08 04:43:26;;;;;;;13.30;5.73;;;;;;;;;;5044856;28;20189;-48
2021/03/08 04:45:55;;;;;;;14.53;5.40;;;;;;;;;;5041650;28;20228;-48
2021/03/08 04:48:21;;;;;;;16.17;5.50;;;;;;;;;;5035935;28;20252;-47
2021/03/08 04:50:48;;;;;;;10.97;5.63;;;;;;;;;;5047751;28;20190;-49
2021/03/08 04:53:15;;;;;;;13.53;5.53;;;;;;;;;;5040924;28;20626;-48
2021/03/08 04:55:41;;;;;;;16.07;5.80;;;;;;;;;;5023671;28;20705;-48
2021/03/08 04:58:06;;;;;;;12.60;5.13;;;;;;;;;;5041555;28;20229;-47
2021/03/08 05:00:31;;;;;;;16.07;5.43;;;;;;;;;;5041007;28;20194;-48
2021/03/08 05:02:57;;;;;;;13.67;5.20;;;;;;;;;;5039947;28;20199;-47
2021/03/08 05:05:25;;;;;;;20.23;5.90;;;;;;;;;;5053885;28;20209;-52
2021/03/08 05:07:57;;;;;;;13.30;5.57;;;;;;;;;;5036810;28;20186;-49
2021/03/08 05:10:25;;;;;;;15.20;5.10;;;;;;;;;;5038116;28;20216;-47
2021/03/08 05:12:52;;;;;;;14.37;5.10;;;;;;;;;;5027794;28;20220;-48
2021/03/08 05:15:18;;;;;;;13.47;4.83;;;;;;;;;;5051809;28;20216;-47
2021/03/08 05:17:44;;;;;;;11.97;5.17;;;;;;;;;;5038247;28;20182;-49
2021/03/08 05:20:15;;;;;;;23.90;5.77;;;;;;;;;;5040053;28;20669;-48
2021/03/08 05:22:42;;;;;;;16.30;5.20;;;;;;;;;;5044946;28;20212;-47
2021/03/08 05:25:09;;;;;;;15.27;5.47;;;;;;;;;;5049927;28;20344;-48
2021/03/08 05:27:37;;;;;;;16.67;5.80;;;;;;;;;;5038783;28;20196;-47
2021/03/08 05:30:05;;;;;;;17.47;6.10;;;;;;;;;;5044109;28;20187;-48
2021/03/08 05:32:37;;;;;;;15.53;6.47;;;;;;;;;;5026159;28;20300;-50
2021/03/08 05:35:05;;;;;;;16.50;6.27;;;;;;;;;;5044406;28;20214;-50
2021/03/08 05:37:33;;;;;;;16.60;6.30;;;;;;;;;;5045351;28;20220;-48
2021/03/08 05:40:04;;;;;;;17.07;5.97;;;;;;;;;;5036870;28;20194;-49
2021/03/08 05:42:35;;;;;;;23.97;6.90;;;;;;;;;;5041500;28;20609;-49
2021/03/08 05:45:17;;;;;;;14.17;5.93;;;;;;;;;;5037329;28;20702;-47
2021/03/08 05:48:15;;;;;;;16.87;6.60;;;;;;;;;;5038944;28;20182;-49
2021/03/08 05:51:02;;;;;;;19.43;6.33;;;;;;;;;;5045741;28;20268;-47
2021/03/08 05:53:42;;;;;;;17.63;6.57;;;;;;;;;;5040276;28;20197;-47
2021/03/08 05:56:15;;;;;;;17.87;6.50;;;;;;;;;;5041453;28;20215;-47
2021/03/08 05:59:14;;;;;;;14.23;5.97;;;;;;;;;;5035376;28;20586;-48
2021/03/08 06:01:48;;;;;;;14.63;7.03;;;;;;;;;;5044033;28;20197;-48
2021/03/08 06:04:51;;;;;;;15.60;6.43;;;;;;;;;;5044579;28;20224;-47
2021/03/08 06:08:01;;;;;;;17.53;6.37;;;;;;;;;;5037319;28;20190;-48
2021/03/08 06:10:26;;;;;;;14.00;5.83;;;;;;;;;;5044187;28;20280;-50
2021/03/08 06:12:54;;;;;;;19.60;6.23;;;;;;;;;;5046848;28;20363;-48
2021/03/08 06:15:21;;;;;;;16.67;6.10;;;;;;;;;;5039959;28;20214;-49
2021/03/08 06:17:49;;;;;;;16.53;6.97;;;;;;;;;;5046019;28;20246;-49
2021/03/08 06:20:15;;;;;;;15.13;6.07;;;;;;;;;;5056357;28;20186;-48
2021/03/08 06:22:40;;;;;;;20.57;6.50;;;;;;;;;;5043612;28;20189;-47
2021/03/08 06:25:06;;;;;;;19.00;6.33;;;;;;;;;;5038920;28;20219;-49
2021/03/08 06:27:32;;;;;;;10.83;5.03;;;;;;;;;;5046459;28;20566;-47
2021/03/08 06:29:57;;;;;;;12.53;5.10;;;;;;;;;;5048829;28;20193;-46
2021/03/08 06:32:24;;;;;;;13.73;5.50;;;;;;;;;;5052161;28;20729;-47
2021/03/08 06:34:50;;;;;;;13.00;4.80;;;;;;;;;;5043430;28;20493;-47
2021/03/08 06:37:15;;;;;;;13.10;4.70;;;;;;;;;;5053922;28;20217;-48
2021/03/08 06:39:45;;;;;;;9.70;4.73;;;;;;;;;;5041764;28;20601;-48
2021/03/08 06:42:13;;;;;;;12.67;4.67;;;;;;;;;;5037369;28;20214;-50
2021/03/08 06:44:38;;;;;;;12.93;4.70;;;;;;;;;;5039522;28;20659;-49
2021/03/08 06:47:05;;;;;;;15.97;5.07;;;;;;;;;;5040013;28;20217;-47
2021/03/08 06:49:32;;;;;;;9.03;5.37;;;;;;;;;;5040300;28;20190;-49
2021/03/08 06:52:11;;;;;;;11.27;4.70;;;;;;;;;;5038010;28;20213;-47
2021/03/08 06:54:38;;;;;;;10.13;4.87;;;;;;;;;;5039715;28;20281;-47
2021/03/08 06:57:24;;;;;;;11.70;4.40;;;;;;;;;;5020945;28;20384;-48
2021/03/08 06:59:52;;;;;;;8.37;4.63;;;;;;;;;;5038807;28;20225;-48
2021/03/08 07:02:18;;;;;;;16.43;5.37;;;;;;;;;;5042071;28;21597;-47
2021/03/08 07:04:44;;;;;;;9.93;4.37;;;;;;;;;;5040153;28;20217;-48
2021/03/08 07:07:11;;;;;;;13.23;5.23;;;;;;;;;;5034187;28;20714;-49
2021/03/08 07:09:48;;;;;;;10.00;4.70;;;;;;;;;;5028277;28;20210;-49
2021/03/08 07:12:14;;;;;;;9.67;3.93;;;;;;;;;;5032582;28;20214;-49
2021/03/08 07:14:41;;;;;;;12.07;4.03;;;;;;;;;;5039978;28;20247;-51
2021/03/08 07:17:34;;;;;;;9.37;4.30;;;;;;;;;;5037696;28;20189;-50
2021/03/08 07:20:10;;;;;;;9.77;4.50;;;;;;;;;;5030308;28;20202;-50
2021/03/08 07:22:42;;;;;;;13.03;5.00;;;;;;;;;;5037459;28;20210;-48
2021/03/08 07:25:28;;;;;;;10.63;4.37;;;;;;;;;;5036948;28;20220;-51
2021/03/08 07:27:53;;;;;;;8.80;4.47;;;;;;;;;;5035889;28;20261;-50
2021/03/08 07:30:22;;;;;;;10.13;4.07;;;;;;;;;;5047549;28;20514;-49
2021/03/08 07:32:59;;;;;;;11.77;4.50;;;;;;;;;;5040506;28;20272;-51
2021/03/08 07:35:35;;;;;;;8.07;4.60;;;;;;;;;;5044249;28;20210;-49
2021/03/08 07:38:00;;;;;;;10.33;4.40;;;;;;;;;;5022595;28;20193;-53
2021/03/08 07:40:27;;;;;;;7.83;4.00;;;;;;;;;;5013073;23;20498;-47
2021/03/08 07:42:53;;;;;;;7.93;4.23;;;;;;;;;;4983188;28;20192;-47
2021/03/08 07:45:20;;;;;;;8.67;4.20;;;;;;;;;;4984792;28;20652;-48
2021/03/08 07:47:45;;;;;;;8.25;4.70;;;;;;;;;;4984886;28;20286;-50
2021/03/08 07:50:28;;;;;;;7.38;4.13;;;;;;;;;;4981089;28;20303;-50
2021/03/08 07:52:55;;;;;;;8.70;4.32;;;;;;;;;;4985482;28;20367;-47
2021/03/08 07:55:33;;;;;;;5.78;3.67;;;;;;;;;;4981801;28;20662;-51
2021/03/08 07:58:01;;;;;;;7.85;4.22;;;;;;;;;;4953331;28;20206;-47
2021/03/08 08:00:31;;;;;;;12.07;4.63;;;;;;;;;;4976446;28;20369;-47
2021/03/08 08:02:59;;;;;;;7.57;4.50;;;;;;;;;;4977899;28;20263;-46
2021/03/08 08:05:24;;;;;;;7.03;3.80;;;;;;;;;;4985424;28;20192;-47
2021/03/08 08:07:51;;;;;;;6.63;3.80;;;;;;;;;;4977412;28;20659;-47
2021/03/08 08:10:18;;;;;;;10.55;3.95;;;;;;;;;;4982677;28;20408;-48
2021/03/08 08:12:47;;;;;;;9.45;4.35;;;;;;;;;;4991044;28;20260;-47
2021/03/08 08:15:15;;;;;;;7.45;4.70;;;;;;;;;;4983803;28;20283;-48
2021/03/08 08:17:43;;;;;;;6.15;3.58;;;;;;;;;;4982360;28;20188;-47
2021/03/08 08:20:11;;;;;;;9.88;4.25;;;;;;;;;;4975830;28;20268;-48
2021/03/08 08:22:59;;;;;;;9.25;3.78;;;;;;;;;;4988644;28;20207;-49
2021/03/08 08:25:26;;;;;;;8.05;4.20;;;;;;;;;;4972523;28;20200;-48
2021/03/08 08:27:53;;;;;;;6.95;4.28;;;;;;;;;;4965483;28;20239;-48
2021/03/08 08:30:23;;;;;;;6.05;4.05;;;;;;;;;;4969779;28;20239;-49
2021/03/08 08:32:53;;;;;;;7.50;3.97;;;;;;;;;;4979373;28;20299;-51
2021/03/08 08:35:22;;;;;;;8.00;4.90;;;;;;;;;;4979877;28;20319;-48
2021/03/08 08:38:06;;;;;;;9.95;4.55;;;;;;;;;;4979838;28;20676;-49
2021/03/08 08:40:33;;;;;;;6.53;4.65;;;;;;;;;;4979530;28;20265;-48
2021/03/08 08:43:19;;;;;;;8.35;5.43;;;;;;;;;;4979592;28;20231;-48
2021/03/08 08:45:46;;;;;;;7.55;4.57;;;;;;;;;;4961587;28;20207;-48
2021/03/08 08:48:15;;;;;;;7.22;4.30;;;;;;;;;;4964259;28;20197;-48
2021/03/08 08:50:47;;;;;;;7.47;4.68;;;;;;;;;;4986326;28;20636;-47
2021/03/08 08:53:36;;;;;;;6.78;4.18;;;;;;;;;;4983439;28;20214;-48
2021/03/08 08:56:03;;;;;;;6.90;4.50;;;;;;;;;;4982607;28;20720;-48
2021/03/08 08:58:31;;;;;;;7.53;4.70;;;;;;;;;;4972910;28;20648;-48
2021/03/08 09:01:06;;;;;;;6.97;4.95;;;;;;;;;;4969708;28;20736;-48
2021/03/08 09:04:03;;;;;;;8.73;5.25;;;;;;;;;;4985637;28;20278;-48
2021/03/08 09:06:38;;;;;;;7.50;5.63;;;;;;;;;;4980559;28;20207;-48
2021/03/08 09:09:04;;;;;;;7.47;5.38;;;;;;;;;;4985125;28;20660;-48
2021/03/08 09:11:44;;;;;;;6.63;5.57;;;;;;;;;;4986540;28;20275;-48
2021/03/08 09:14:26;;;;;;;6.63;5.38;;;;;;;;;;4993621;28;20332;-48
2021/03/08 09:17:18;;;;;;;6.00;5.18;;;;;;;;;;4965514;28;20191;-48
2021/03/08 09:19:56;;;;;;;7.22;5.47;;;;;;;;;;4982342;28;20207;-49
2021/03/08 09:22:21;;;;;;;5.95;4.45;;;;;;;;;;4986289;28;20227;-48
2021/03/08 09:24:57;;;;;;;8.88;5.75;;;;;;;;;;4986750;28;20220;-48
2021/03/08 09:27:31;;;;;;;8.65;5.70;;;;;;;;;;4974168;28;20660;-47
2021/03/08 09:30:05;;;;;;;7.60;5.35;;;;;;;;;;4980809;28;20708;-47
2021/03/08 09:32:31;;;;;;;7.45;5.63;;;;;;;;;;4971056;28;20195;-49
2021/03/08 09:35:06;;;;;;;8.20;5.53;;;;;;;;;;4959929;28;21151;-47
2021/03/08 09:37:33;;;;;;;8.70;5.80;;;;;;;;;;4979695;28;20627;-47
2021/03/08 09:39:59;;;;;;;9.02;5.53;;;;;;;;;;4998991;28;20217;-47
2021/03/08 09:42:33;;;;;;;7.95;5.47;;;;;;;;;;4989178;28;20207;-49
2021/03/08 09:44:58;;;;;;;7.38;5.70;;;;;;;;;;4974624;28;20196;-51
2021/03/08 09:47:37;;;;;;;9.23;5.82;;;;;;;;;;4972503;28;20191;-47
2021/03/08 09:50:03;;;;;;;9.07;5.25;;;;;;;;;;4973709;28;20204;-47
2021/03/08 09:52:40;;;;;;;8.50;4.93;;;;;;;;;;4973243;28;21053;-49
2021/03/08 09:55:07;;;;;;;7.55;4.93;;;;;;;;;;4973712;28;20196;-48
2021/03/08 09:57:35;;;;;;;5.55;4.72;;;;;;;;;;4966674;28;20291;-51
2021/03/08 10:00:04;;;;;;;6.40;5.00;;;;;;;;;;4973321;28;20220;-47
2021/03/08 10:02:30;;;;;;;8.07;5.32;;;;;;;;;;4975244;28;20212;-47
2021/03/08 10:04:56;;;;;;;7.63;4.93;;;;;;;;;;4974342;28;20200;-48
2021/03/08 10:07:22;;;;;;;7.47;4.70;;;;;;;;;;4955569;28;20250;-47
2021/03/08 10:09:49;;;;;;;6.28;4.78;;;;;;;;;;4974533;28;20208;-48
2021/03/08 10:12:22;;;;;;;7.60;4.45;;;;;;;;;;4966510;28;20719;-48
2021/03/08 10:14:59;;;;;;;6.88;4.57;;;;;;;;;;4981692;28;20203;-48
2021/03/08 10:17:24;;;;;;;5.53;3.88;;;;;;;;;;4985566;28;20195;-48
2021/03/08 10:19:54;;;;;;;4.78;3.42;;;;;;;;;;4972895;28;20209;-48
2021/03/08 10:22:35;;;;;;;6.13;4.30;;;;;;;;;;4972756;28;20212;-46
2021/03/08 10:25:16;;;;;;;5.78;3.88;;;;;;;;;;4971921;28;20180;-47
2021/03/08 10:27:42;;;;;;;4.57;3.30;;;;;;;;;;4974544;28;20233;-48
2021/03/08 10:30:14;;;;;;;5.45;3.95;;;;;;;;;;4972265;28;20604;-48
2021/03/08 10:32:41;;;;;;;7.72;4.40;;;;;;;;;;4972866;28;20192;-47
2021/03/08 10:35:10;;;;;;;6.15;4.00;;;;;;;;;;4991403;28;20212;-48
2021/03/08 10:37:39;;;;;;;4.60;3.55;;;;;;;;;;4986395;28;20702;-49
2021/03/08 10:40:05;;;;;;;5.32;3.50;;;;;;;;;;4986889;28;20230;-47
2021/03/08 10:42:31;;;;;;;6.32;3.45;;;;;;;;;;4967404;28;20206;-48
2021/03/08 10:44:58;;;;;;;5.60;3.67;;;;;;;;;;4991805;28;20684;-50
2021/03/08 10:47:23;;;;;;;5.65;3.55;;;;;;;;;;4989752;28;20188;-48
2021/03/08 10:49:53;;;;;;;4.22;3.20;;;;;;;;;;4987619;28;20203;-48
2021/03/08 10:52:22;;;;;;;8.82;4.03;;;;;;;;;;4984145;28;20644;-48
2021/03/08 10:54:48;;;;;;;4.38;3.30;;;;;;;;;;4989816;28;20188;-49
2021/03/08 10:57:14;;;;;;;4.50;3.28;;;;;;;;;;4979972;28;20633;-48
2021/03/08 10:59:52;;;;;;;3.72;3.25;;;;;;;;;;4973649;28;20675;-47
2021/03/08 11:02:18;;;;;;;6.30;3.72;;;;;;;;;;4988444;28;20225;-47
2021/03/08 11:04:45;;;;;;;4.68;3.30;;;;;;;;;;4979720;28;20275;-47
2021/03/08 11:07:11;;;;;;;6.20;3.40;;;;;;;;;;4983622;28;20607;-47
2021/03/08 11:09:39;;;;;;;5.35;3.30;;;;;;;;;;4972396;28;20216;-47
2021/03/08 11:12:16;;;;;;;4.47;2.95;;;;;;;;;;4971678;28;20539;-48
2021/03/08 11:14:49;;;;;;;3.90;3.00;;;;;;;;;;4985815;28;20198;-46
2021/03/08 11:17:15;;;;;;;5.85;3.70;;;;;;;;;;4972727;28;20242;-48
2021/03/08 11:19:40;;;;;;;4.05;3.10;;;;;;;;;;4987189;28;20211;-48
2021/03/08 11:22:16;;;;;;;4.03;2.85;;;;;;;;;;4972877;28;20709;-48
2021/03/08 11:24:43;;;;;;;7.70;3.15;;;;;;;;;;4989279;28;20196;-49
2021/03/08 11:27:14;;;;;;;5.05;3.22;;;;;;;;;;4980661;28;20243;-49
2021/03/08 11:29:41;;;;;;;4.43;3.50;;;;;;;;;;4976123;28;20223;-49
2021/03/08 11:32:08;;;;;;;6.70;3.42;;;;;;;;;;4980545;28;20215;-48
2021/03/08 11:34:43;;;;;;;5.13;2.90;;;;;;;;;;4971887;28;20280;-47
2021/03/08 11:37:10;;;;;;;4.55;3.15;;;;;;;;;;4984385;28;20196;-47
2021/03/08 11:39:43;;;;;;;3.00;2.70;;;;;;;;;;4974262;28;20714;-48
2021/03/08 11:42:09;;;;;;;4.97;2.22;;;;;;;;;;4986915;28;20679;-47
2021/03/08 11:44:35;;;;;;;4.25;2.38;;;;;;;;;;4987609;28;20291;-48
2021/03/08 11:47:01;;;;;;;3.15;1.83;;;;;;;;;;4977800;28;20311;-47
2021/03/08 11:49:27;;;;;;;3.45;1.70;;;;;;;;;;4989961;28;20196;-47
2021/03/08 11:51:52;;;;;;;2.70;1.80;;;;;;;;;;4986745;28;20619;-48
2021/03/08 11:54:18;;;;;;;2.38;1.88;;;;;;;;;;4987362;28;20191;-47
2021/03/08 11:56:44;;;;;;;2.58;1.58;;;;;;;;;;4987870;28;20570;-48
2021/03/08 11:59:10;;;;;;;4.00;1.65;;;;;;;;;;4984295;28;20246;-46
2021/03/08 12:01:35;;;;;;;3.25;1.65;;;;;;;;;;4973817;28;20212;-49
2021/03/08 12:04:00;;;;;;;2.95;1.83;;;;;;;;;;4983924;28;20219;-48
2021/03/08 12:06:26;;;;;;;4.90;1.70;;;;;;;;;;4967312;28;20196;-47
2021/03/08 12:08:51;;;;;;;2.60;1.98;;;;;;;;;;4977953;28;20208;-47
2021/03/08 12:11:16;;;;;;;3.05;2.00;;;;;;;;;;4986334;28;20198;-46
2021/03/08 12:13:41;;;;;;;2.95;1.98;;;;;;;;;;4971150;28;20200;-47
2021/03/08 12:16:07;;;;;;;1.92;1.70;;;;;;;;;;4986757;28;20562;-47
2021/03/08 12:18:32;;;;;;;4.13;1.75;;;;;;;;;;4989643;28;20192;-46
2021/03/08 12:20:57;;;;;;;4.55;1.80;;;;;;;;;;4977012;28;20198;-47
2021/03/08 12:23:23;;;;;;;3.00;1.80;;;;;;;;;;4983669;28;20246;-48
2021/03/08 12:25:48;;;;;;;3.05;1.80;;;;;;;;;;4987026;28;20932;-48
2021/03/08 12:28:14;;;;;;;2.35;1.73;;;;;;;;;;4986245;28;20748;-49
2021/03/08 12:30:39;;;;;;;4.15;2.20;;;;;;;;;;4983330;28;20249;-48
2021/03/08 12:33:05;;;;;;;2.55;1.60;;;;;;;;;;4985815;28;20199;-49
2021/03/08 12:35:30;;;;;;;2.55;1.95;;;;;;;;;;4987731;28;20649;-48
2021/03/08 12:37:55;;;;;;;2.88;1.95;;;;;;;;;;4983355;28;20203;-49
2021/03/08 12:40:21;;;;;;;2.53;1.85;;;;;;;;;;4984844;28;20216;-48
2021/03/08 12:42:46;;;;;;;3.78;2.03;;;;;;;;;;4986485;28;20716;-48
2021/03/08 12:45:12;;;;;;;4.43;1.67;;;;;;;;;;4986630;28;20196;-48
2021/03/08 12:47:37;;;;;;;3.97;2.08;;;;;;;;;;4968707;28;20590;-48
2021/03/08 12:50:03;;;;;;;3.80;1.70;;;;;;;;;;4986510;28;20306;-47
2021/03/08 12:52:29;;;;;;;3.72;1.80;;;;;;;;;;4976588;28;20207;-48
2021/03/08 12:54:57;;;;;;;3.07;1.90;;;;;;;;;;4985677;28;20417;-50
2021/03/08 12:57:23;;;;;;;2.85;1.80;;;;;;;;;;4981617;28;20188;-47
2021/03/08 12:59:48;;;;;;;3.75;1.83;;;;;;;;;;4965706;28;20202;-47
2021/03/08 13:02:15;;;;;;;2.35;1.42;;;;;;;;;;4987749;28;20208;-49
2021/03/08 13:04:40;;;;;;;2.75;1.48;;;;;;;;;;4985605;28;20198;-48
2021/03/08 13:07:05;;;;;;;3.03;1.55;;;;;;;;;;4984175;28;20207;-48
2021/03/08 13:09:30;;;;;;;3.17;1.77;;;;;;;;;;4980691;28;20708;-47
2021/03/08 13:11:56;;;;;;;2.50;1.50;;;;;;;;;;4988543;28;20188;-47
2021/03/08 13:14:22;;;;;;;4.00;1.30;;;;;;;;;;4965259;28;20192;-48
2021/03/08 13:16:50;;;;;;;2.17;1.20;;;;;;;;;;4984252;28;20215;-48
2021/03/08 13:19:15;;;;;;;1.40;0.83;;;;;;;;;;4987255;28;20311;-47
2021/03/08 13:21:40;;;;;;;1.83;1.30;;;;;;;;;;4985683;28;20227;-47
2021/03/08 13:24:06;;;;;;;2.57;1.47;;;;;;;;;;4986709;28;20207;-46
2021/03/08 13:26:31;;;;;;;1.97;1.13;;;;;;;;;;4984362;28;20192;-45
2021/03/08 13:28:57;;;;;;;2.20;1.20;;;;;;;;;;4976995;28;20242;-48
2021/03/08 13:31:22;;;;;;;2.83;1.40;;;;;;;;;;4984460;28;20272;-48
2021/03/08 13:33:48;;;;;;;3.30;1.40;;;;;;;;;;4985707;28;20837;-48
2021/03/08 13:36:13;;;;;;;3.20;1.00;;;;;;;;;;4985308;28;20191;-48
2021/03/08 13:38:38;;;;;;;2.97;1.43;;;;;;;;;;4985277;28;20184;-47
2021/03/08 13:41:04;;;;;;;2.17;1.30;;;;;;;;;;4984651;28;20196;-48
2021/03/08 13:43:29;;;;;;;2.40;1.30;;;;;;;;;;4970658;28;20226;-48
2021/03/08 13:45:54;;;;;;;3.92;1.10;;;;;;;;;;4967098;28;20234;-48
2021/03/08 13:48:20;;;;;;;2.57;1.00;;;;;;;;;;4980811;28;20434;-46
2021/03/08 13:50:48;;;;;;;1.30;0.77;;;;;;;;;;4984683;28;20208;-47
2021/03/08 13:53:13;;;;;;;4.37;1.00;;;;;;;;;;4986156;28;20667;-47
2021/03/08 13:55:38;;;;;;;2.10;1.10;;;;;;;;;;4986870;28;20263;-47
2021/03/08 13:58:04;;;;;;;1.60;0.77;;;;;;;;;;4984066;28;20195;-48
2021/03/08 14:00:29;;;;;;;1.57;1.10;;;;;;;;;;4985011;28;20212;-46
2021/03/08 14:02:55;;;;;;;1.27;0.80;;;;;;;;;;4981256;28;20250;-45
2021/03/08 14:05:20;;;;;;;1.10;0.77;;;;;;;;;;4984351;28;20238;-46
2021/03/08 14:07:45;;;;;;;1.97;1.10;;;;;;;;;;4981844;28;20275;-47
2021/03/08 14:10:11;;;;;;;1.27;0.70;;;;;;;;;;4983128;28;20209;-48
2021/03/08 14:12:37;;;;;;;1.80;0.90;;;;;;;;;;4976970;28;20183;-46
2021/03/08 14:15:04;;;;;;;6.17;0.83;;;;;;;;;;4970768;28;20793;-47
2021/03/08 14:17:29;;;;;;;1.57;0.80;;;;;;;;;;4985340;28;20229;-45
2021/03/08 14:19:54;;;;;;;0.83;0.73;;;;;;;;;;4985888;28;20195;-46
2021/03/08 14:22:20;;;;;;;1.50;0.70;;;;;;;;;;4974328;28;20200;-45
2021/03/08 14:24:48;;;;;;;1.20;0.70;;;;;;;;;;4990247;28;20250;-48
2021/03/08 14:27:14;;;;;;;1.90;0.90;;;;;;;;;;4989393;28;20546;-47
2021/03/08 14:29:39;;;;;;;2.87;1.00;;;;;;;;;;4986025;28;20219;-46
2021/03/08 14:32:05;;;;;;;1.10;0.80;;;;;;;;;;4987580;28;20664;-46
2021/03/08 14:34:30;;;;;;;1.30;0.80;;;;;;;;;;4993017;28;20186;-47
2021/03/08 14:36:56;;;;;;;1.17;0.60;;;;;;;;;;4988234;28;20196;-48
2021/03/08 14:39:21;;;;;;;1.40;0.80;;;;;;;;;;4984234;28;20211;-47
2021/03/08 14:41:46;;;;;;;1.13;0.77;;;;;;;;;;4973841;28;20594;-46
2021/03/08 14:44:12;;;;;;;1.33;0.80;;;;;;;;;;4992623;28;20663;-46
2021/03/08 14:46:37;;;;;;;1.23;0.80;;;;;;;;;;4979401;28;20198;-48